Back to Top

Language: 

My Weather Underground Personal Weather Station Historical Data with Graphs...

Delerius Weather Station Historical Data
Daily Summary for January 9, 2017 Units:  English    Metric   Both
« Previous Day
Next Day »
Daily Weekly Monthly Yearly Custom
  High: Low: Average:
Temperature: 49.9 °F 39.9 °F 44.7 °F
Dew Point: 46.8 °F 37.5 °F 42.2 °F
Humidity: 96 % 85 % 91 %
Wind Speed: 21.0 mph 0.0 mph 9.1 mph
Wind Gust: 27.0 mph - -
Wind:- - WSW
Pressure: 30.28 in 29.69 in -
Precipitation: 0.07 in    
Historical Graphs
 
 
Tabular Data for January 9, 2017
Time Temperature Dew Point Pressure Wind Wind Speed Wind Gust Humidity Rainfall Rate (Hourly) solar Conditions
00:00 43.1 °F 42.0 °F 30.28 in WSW 1.0 mph 1.0 mph 96 % 0.00 in 0 W/m2
00:05 43.2 °F 42.1 °F 30.28 in Calm   1.0 mph 96 % 0.00 in 0 W/m2
00:15 43.4 °F 42.3 °F 30.28 in Calm     96 % 0.00 in 0 W/m2
00:20 43.5 °F 42.4 °F 30.27 in Calm   1.0 mph 96 % 0.00 in 0 W/m2
00:25 43.7 °F 42.6 °F 30.27 in Calm   2.0 mph 96 % 0.00 in 0 W/m2
00:30 43.9 °F 42.8 °F 30.27 in SSW 2.0 mph 4.0 mph 96 % 0.00 in 0 W/m2
00:40 44.6 °F 43.5 °F 30.26 in SW 5.0 mph 5.0 mph 96 % 0.00 in 0 W/m2
00:45 44.7 °F 43.6 °F 30.26 in SW 4.0 mph 5.0 mph 96 % 0.00 in 0 W/m2
00:50 44.7 °F 43.4 °F 30.25 in SW 1.0 mph 4.0 mph 95 % 0.00 in 0 W/m2
00:55 44.6 °F 43.3 °F 30.25 in SW 1.0 mph 4.0 mph 95 % 0.00 in 0 W/m2
01:00 44.5 °F 43.2 °F 30.25 in SW 1.0 mph 1.0 mph 95 % 0.00 in 0 W/m2
01:05 44.3 °F 42.7 °F 30.25 in SW 1.0 mph 3.0 mph 94 % 0.00 in 0 W/m2
01:15 44.3 °F 43.0 °F 30.24 in SW 1.0 mph 4.0 mph 95 % 0.00 in 0 W/m2
01:20 44.3 °F 43.0 °F 30.24 in SW 1.0 mph 1.0 mph 95 % 0.00 in 0 W/m2
01:25 44.3 °F 43.0 °F 30.24 in SW 2.0 mph 2.0 mph 95 % 0.00 in 0 W/m2
01:30 44.4 °F 43.1 °F 30.24 in SW 3.0 mph 6.0 mph 95 % 0.00 in 0 W/m2
01:35 44.5 °F 43.2 °F 30.24 in SW 3.0 mph 6.0 mph 95 % 0.00 in 0 W/m2
01:40 44.4 °F 43.1 °F 30.23 in SW 2.0 mph 2.0 mph 95 % 0.00 in 0 W/m2
01:50 44.3 °F 42.7 °F 30.23 in SW 1.0 mph 1.0 mph 94 % 0.00 in 0 W/m2
01:55 44.3 °F 43.0 °F 30.23 in SW 1.0 mph 3.0 mph 95 % 0.00 in 0 W/m2
02:00 44.4 °F 43.1 °F 30.22 in SW 2.0 mph 2.0 mph 95 % 0.00 in 0 W/m2
02:05 44.4 °F 43.1 °F 30.22 in SW 1.0 mph 4.0 mph 95 % 0.00 in 0 W/m2
02:10 44.2 °F 42.6 °F 30.21 in Calm   4.0 mph 94 % 0.00 in 0 W/m2
02:15 43.9 °F 42.3 °F 30.21 in SW 1.0 mph 4.0 mph 94 % 0.00 in 0 W/m2
02:20 43.8 °F 42.5 °F 30.21 in SW 1.0 mph 1.0 mph 95 % 0.00 in 0 W/m2
02:30 44.4 °F 43.3 °F 30.21 in SW 2.0 mph 2.0 mph 96 % 0.00 in 0 W/m2
02:35 44.5 °F 43.2 °F 30.20 in SW 1.0 mph 4.0 mph 95 % 0.00 in 0 W/m2
02:40 44.3 °F 43.0 °F 30.20 in SW 1.0 mph 1.0 mph 95 % 0.00 in 0 W/m2
02:45 43.9 °F 42.6 °F 30.19 in SW 1.0 mph 4.0 mph 95 % 0.00 in 0 W/m2
02:50 44.1 °F 42.8 °F 30.19 in SW 1.0 mph 1.0 mph 95 % 0.00 in 0 W/m2
03:00 44.3 °F 43.2 °F 30.18 in SW 1.0 mph 4.0 mph 96 % 0.00 in 0 W/m2
03:05 44.6 °F 43.5 °F 30.18 in SW 2.0 mph 4.0 mph 96 % 0.00 in 0 W/m2
03:10 44.6 °F 43.5 °F 30.18 in SW 4.0 mph 4.0 mph 96 % 0.00 in 0 W/m2
03:15 44.7 °F 43.6 °F 30.17 in South 6.0 mph 6.0 mph 96 % 0.00 in 0 W/m2
03:20 45.1 °F 44.0 °F 30.17 in SW 6.0 mph 6.0 mph 96 % 0.00 in 0 W/m2
03:25 45.6 °F 44.5 °F 30.17 in SSW 6.0 mph 6.0 mph 96 % 0.00 in 0 W/m2
03:35 46.1 °F 45.0 °F 30.16 in SSE 6.0 mph 9.0 mph 96 % 0.00 in 0 W/m2
03:40 46.3 °F 45.2 °F 30.16 in South 6.0 mph 7.0 mph 96 % 0.00 in 0 W/m2
03:45 46.4 °F 45.0 °F 30.16 in SSW 5.0 mph 7.0 mph 95 % 0.00 in 0 W/m2
03:55 46.6 °F 45.2 °F 30.15 in SSE 6.0 mph 8.0 mph 95 % 0.00 in 0 W/m2
04:05 46.9 °F 45.5 °F 30.14 in South 6.0 mph 6.0 mph 95 % 0.00 in 0 W/m2
04:10 47.0 °F 45.6 °F 30.14 in South 6.0 mph 6.0 mph 95 % 0.00 in 0 W/m2
04:15 47.1 °F 45.7 °F 30.13 in SSE 6.0 mph 8.0 mph 95 % 0.00 in 0 W/m2
04:20 47.2 °F 45.8 °F 30.13 in SSE 6.0 mph 6.0 mph 95 % 0.00 in 0 W/m2
04:30 47.3 °F 45.9 °F 30.12 in SE 5.0 mph 5.0 mph 95 % 0.00 in 0 W/m2
04:35 47.5 °F 46.1 °F 30.11 in ESE 5.0 mph 5.0 mph 95 % 0.00 in 0 W/m2
04:40 47.5 °F 45.9 °F 30.10 in ESE 6.0 mph 9.0 mph 94 % 0.00 in 0 W/m2
04:50 47.5 °F 45.9 °F 30.09 in East 6.0 mph 6.0 mph 94 % 0.00 in 0 W/m2
04:55 47.7 °F 46.1 °F 30.09 in East 5.0 mph 6.0 mph 94 % 0.00 in 0 W/m2
05:00 47.7 °F 46.1 °F 30.09 in East 4.0 mph 4.0 mph 94 % 0.00 in 0 W/m2
05:05 47.7 °F 46.1 °F 30.09 in ESE 3.0 mph 7.0 mph 94 % 0.00 in 0 W/m2
05:10 47.8 °F 46.2 °F 30.09 in ENE 3.0 mph 3.0 mph 94 % 0.00 in 0 W/m2
05:25 48.2 °F 46.6 °F 30.08 in SW 4.0 mph 10.0 mph 94 % 0.00 in 0 W/m2
05:30 48.6 °F 46.7 °F 30.08 in West 8.0 mph 8.0 mph 93 % 0.00 in 0 W/m2
05:40 49.2 °F 46.7 °F 30.07 in SW 10.0 mph 13.0 mph 91 % 0.00 in 0 W/m2
05:45 49.5 °F 46.7 °F 30.07 in SW 13.0 mph 23.0 mph 90 % 0.00 in 0 W/m2
05:50 49.6 °F 46.8 °F 30.06 in SSW 13.0 mph 18.0 mph 90 % 0.00 in 0 W/m2
05:55 49.7 °F 46.6 °F 30.05 in SW 14.0 mph 18.0 mph 89 % 0.00 in 0 W/m2
06:05 49.9 °F 46.5 °F 30.04 in SW 16.0 mph 24.0 mph 88 % 0.00 in 0 W/m2
06:15 49.9 °F 46.5 °F 30.04 in WSW 16.0 mph 16.0 mph 88 % 0.00 in 0 W/m2
06:20 49.9 °F 46.5 °F 30.03 in SW 17.0 mph 24.0 mph 88 % 0.00 in 0 W/m2
06:25 49.9 °F 46.8 °F 30.03 in SW 18.0 mph 24.0 mph 89 % 0.00 in 0 W/m2
06:35 49.9 °F 46.8 °F 30.03 in SW 21.0 mph 27.0 mph 89 % 0.00 in 0 W/m2
06:45 49.8 °F 46.7 °F 30.03 in SW 19.0 mph 24.0 mph 89 % 0.00 in 0 W/m2
06:50 49.8 °F 46.7 °F 30.03 in SSW 18.0 mph 23.0 mph 89 % 0.00 in 0 W/m2
07:00 49.6 °F 46.2 °F 30.03 in West 14.0 mph 14.0 mph 88 % 0.00 in 0 W/m2
07:05 49.6 °F 46.2 °F 30.03 in SW 12.0 mph 14.0 mph 88 % 0.00 in 0 W/m2
07:10 49.5 °F 46.1 °F 30.02 in SSW 11.0 mph 15.0 mph 88 % 0.00 in 0 W/m2
07:20 49.4 °F 45.7 °F 30.02 in SSW 15.0 mph 16.0 mph 87 % 0.00 in 0 W/m2
07:25 49.4 °F 45.7 °F 30.02 in SSW 14.0 mph 21.0 mph 87 % 0.00 in 0 W/m2
07:30 49.3 °F 45.3 °F 30.01 in West 16.0 mph 16.0 mph 86 % 0.00 in 0 W/m2
07:35 49.2 °F 45.2 °F 30.01 in SW 16.0 mph 20.0 mph 86 % 0.00 in 0 W/m2
07:45 49.2 °F 45.2 °F 30.00 in WSW 18.0 mph 18.0 mph 86 % 0.00 in 0 W/m2
07:50 49.1 °F 45.1 °F 30.00 in WSW 17.0 mph 25.0 mph 86 % 0.00 in 0 W/m2
07:55 49.0 °F 44.7 °F 30.00 in WSW 17.0 mph 25.0 mph 85 % 0.00 in 0 W/m2
08:00 48.9 °F 44.6 °F 30.00 in WSW 18.0 mph 20.0 mph 85 % 0.00 in 0 W/m2
08:05 48.9 °F 44.6 °F 29.99 in WSW 19.0 mph 20.0 mph 85 % 0.00 in 0 W/m2
08:10 48.8 °F 44.5 °F 29.99 in SW 16.0 mph 16.0 mph 85 % 0.00 in 0 W/m2
08:20 48.7 °F 44.4 °F 29.99 in WSW 15.0 mph 21.0 mph 85 % 0.00 in 0 W/m2
08:25 48.6 °F 44.6 °F 29.99 in WSW 16.0 mph 21.0 mph 86 % 0.00 in 0 W/m2
08:35 48.6 °F 44.6 °F 29.98 in SSW 15.0 mph 24.0 mph 86 % 0.00 in 5 W/m2
08:40 48.5 °F 44.5 °F 29.98 in SW 16.0 mph 16.0 mph 86 % 0.00 in 9 W/m2
08:45 48.5 °F 44.5 °F 29.98 in SW 15.0 mph 16.0 mph 86 % 0.00 in 5 W/m2
08:50 48.3 °F 44.6 °F 29.97 in WSW 14.0 mph 19.0 mph 87 % 0.00 in 5 W/m2
09:00 48.0 °F 44.6 °F 29.97 in SW 15.0 mph 23.0 mph 88 % 0.00 in 14 W/m2
09:05 47.8 °F 44.7 °F 29.97 in WSW 16.0 mph 23.0 mph 89 % 0.08 in 14 W/m2
09:10 47.6 °F 44.8 °F 29.96 in WSW 15.0 mph 18.0 mph 90 % 0.08 in 14 W/m2
09:15 47.6 °F 44.8 °F 29.96 in SW 16.0 mph 18.0 mph 90 % 0.05 in 14 W/m2
09:20 47.5 °F 44.7 °F 29.95 in SSW 16.0 mph 16.0 mph 90 % 0.05 in 12 W/m2
09:25 47.4 °F 44.6 °F 29.95 in SSW 13.0 mph 16.0 mph 90 % 0.05 in 14 W/m2
09:40 47.2 °F 44.7 °F 29.94 in SSW 12.0 mph 16.0 mph 91 % 0.00 in 14 W/m2
09:45 47.2 °F 44.7 °F 29.94 in SSW 15.0 mph 16.0 mph 91 % 0.00 in 21 W/m2
09:55 47.2 °F 44.7 °F 29.93 in SW 14.0 mph 20.0 mph 91 % 0.00 in 30 W/m2
10:00 47.2 °F 44.7 °F 29.93 in WSW 14.0 mph 14.0 mph 91 % 0.00 in 25 W/m2
10:05 47.3 °F 44.8 °F 29.93 in SW 14.0 mph 14.0 mph 91 % 0.00 in 21 W/m2
10:10 47.3 °F 44.8 °F 29.93 in SSW 15.0 mph 15.0 mph 91 % 0.00 in 16 W/m2
10:15 47.3 °F 44.8 °F 29.92 in SW 14.0 mph 15.0 mph 91 % 0.00 in 19 W/m2
10:20 47.3 °F 44.8 °F 29.92 in SSW 14.0 mph 18.0 mph 91 % 0.00 in 26 W/m2
10:25 47.3 °F 44.8 °F 29.92 in SW 14.0 mph 18.0 mph 91 % 0.00 in 26 W/m2
10:30 47.1 °F 44.9 °F 29.92 in SSW 14.0 mph 14.0 mph 92 % 0.00 in 26 W/m2
10:40 47.1 °F 44.9 °F 29.91 in West 15.0 mph 15.0 mph 92 % 0.00 in 46 W/m2
10:45 47.1 °F 44.9 °F 29.90 in SW 14.0 mph 18.0 mph 92 % 0.00 in 51 W/m2
10:50 47.1 °F 44.9 °F 29.90 in SSW 14.0 mph 16.0 mph 92 % 0.00 in 42 W/m2
10:55 47.1 °F 44.9 °F 29.89 in SSW 15.0 mph 16.0 mph 92 % 0.00 in 51 W/m2
11:00 47.1 °F 44.9 °F 29.89 in SSW 15.0 mph 15.0 mph 92 % 0.00 in 42 W/m2
11:05 47.1 °F 44.9 °F 29.89 in South 15.0 mph 15.0 mph 92 % 0.00 in 53 W/m2
11:10 47.2 °F 45.0 °F 29.88 in South 15.0 mph 15.0 mph 92 % 0.00 in 91 W/m2
11:20 47.3 °F 45.1 °F 29.88 in South 15.0 mph 15.0 mph 92 % 0.00 in 90 W/m2
11:25 47.4 °F 45.2 °F 29.87 in SSW 15.0 mph 19.0 mph 92 % 0.00 in 90 W/m2
11:30 47.4 °F 45.2 °F 29.87 in SW 14.0 mph 14.0 mph 92 % 0.00 in 65 W/m2
11:35 47.5 °F 45.3 °F 29.87 in SSW 13.0 mph 16.0 mph 92 % 0.00 in 102 W/m2
11:40 47.7 °F 45.2 °F 29.86 in SSW 13.0 mph 13.0 mph 91 % 0.00 in 63 W/m2
11:45 47.8 °F 45.3 °F 29.86 in SSW 13.0 mph 14.0 mph 91 % 0.00 in 49 W/m2
11:50 47.9 °F 45.4 °F 29.86 in SSW 12.0 mph 19.0 mph 91 % 0.00 in 60 W/m2
12:00 47.9 °F 45.4 °F 29.85 in SSW 11.0 mph 11.0 mph 91 % 0.00 in 47 W/m2
12:10 48.1 °F 45.6 °F 29.84 in SSW 13.0 mph 13.0 mph 91 % 0.00 in 60 W/m2
12:15 48.1 °F 45.6 °F 29.84 in SW 12.0 mph 13.0 mph 91 % 0.00 in 54 W/m2
12:20 48.1 °F 45.6 °F 29.84 in SW 11.0 mph 11.0 mph 91 % 0.00 in 60 W/m2
12:25 48.1 °F 45.6 °F 29.84 in SSW 10.0 mph 11.0 mph 91 % 0.00 in 35 W/m2
12:30 48.1 °F 45.9 °F 29.83 in SSW 8.0 mph 8.0 mph 92 % 0.00 in 56 W/m2
12:40 48.1 °F 45.9 °F 29.83 in SW 8.0 mph 8.0 mph 92 % 0.00 in 11 W/m2
12:45 48.1 °F 45.9 °F 29.84 in WSW 8.0 mph 8.0 mph 92 % 0.00 in 16 W/m2
12:50 47.8 °F 45.3 °F 29.84 in WNW 11.0 mph 11.0 mph 91 % 0.00 in 25 W/m2
12:55 47.0 °F 44.2 °F 29.84 in West 13.0 mph 16.0 mph 90 % 0.00 in 46 W/m2
13:00 46.4 °F 43.3 °F 29.84 in WNW 13.0 mph 13.0 mph 89 % 0.00 in 51 W/m2
13:05 46.0 °F 43.2 °F 29.84 in WNW 11.0 mph 13.0 mph 90 % 0.00 in 63 W/m2
13:15 45.7 °F 43.2 °F 29.84 in WNW 9.0 mph 10.0 mph 91 % 0.00 in 39 W/m2
13:20 45.6 °F 43.1 °F 29.84 in West 9.0 mph 14.0 mph 91 % 0.00 in 44 W/m2
13:25 45.4 °F 42.9 °F 29.84 in WNW 9.0 mph 14.0 mph 91 % 0.00 in 28 W/m2
13:30 45.2 °F 42.4 °F 29.84 in WNW 10.0 mph 10.0 mph 90 % 0.00 in 26 W/m2
13:40 44.8 °F 41.8 °F 29.84 in West 9.0 mph 12.0 mph 89 % 0.00 in 25 W/m2
13:45 44.6 °F 41.6 °F 29.84 in SW 8.0 mph 12.0 mph 89 % 0.00 in 26 W/m2
13:55 44.3 °F 41.3 °F 29.83 in WSW 9.0 mph 11.0 mph 89 % 0.00 in 70 W/m2
14:00 44.2 °F 41.5 °F 29.83 in West 8.0 mph 8.0 mph 90 % 0.00 in 74 W/m2
14:05 44.2 °F 41.7 °F 29.83 in West 7.0 mph 8.0 mph 91 % 0.00 in 51 W/m2
14:10 44.1 °F 41.6 °F 29.83 in WSW 7.0 mph 8.0 mph 91 % 0.00 in 53 W/m2
14:15 43.9 °F 41.4 °F 29.83 in West 8.0 mph 8.0 mph 91 % 0.00 in 53 W/m2
14:20 43.9 °F 41.2 °F 29.82 in West 9.0 mph 9.0 mph 90 % 0.00 in 56 W/m2
14:25 43.8 °F 41.1 °F 29.82 in WNW 8.0 mph 9.0 mph 90 % 0.00 in 77 W/m2
14:35 44.0 °F 41.3 °F 29.82 in WSW 7.0 mph 11.0 mph 90 % 0.00 in 132 W/m2
14:40 44.1 °F 41.4 °F 29.82 in WSW 7.0 mph 8.0 mph 90 % 0.00 in 30 W/m2
14:45 44.1 °F 41.1 °F 29.81 in WNW 7.0 mph 8.0 mph 89 % 0.00 in 32 W/m2
14:50 44.0 °F 41.0 °F 29.81 in West 7.0 mph 11.0 mph 89 % 0.00 in 33 W/m2
14:55 44.0 °F 40.7 °F 29.81 in West 7.0 mph 11.0 mph 88 % 0.00 in 35 W/m2
15:05 43.8 °F 40.5 °F 29.81 in WNW 6.0 mph 6.0 mph 88 % 0.00 in 23 W/m2
15:10 43.7 °F 40.4 °F 29.80 in West 6.0 mph 6.0 mph 88 % 0.00 in 23 W/m2
15:15 43.7 °F 40.4 °F 29.80 in WNW 6.0 mph 6.0 mph 88 % 0.00 in 44 W/m2
15:20 43.8 °F 40.8 °F 29.80 in West 6.0 mph 7.0 mph 89 % 0.00 in 70 W/m2
15:30 43.8 °F 40.5 °F 29.80 in WNW 6.0 mph 6.0 mph 88 % 0.00 in 19 W/m2
15:40 43.5 °F 39.9 °F 29.80 in WNW 8.0 mph 10.0 mph 87 % 0.00 in 12 W/m2
15:45 43.3 °F 39.7 °F 29.80 in WNW 9.0 mph 12.0 mph 87 % 0.00 in 9 W/m2
15:50 43.1 °F 39.5 °F 29.80 in West 9.0 mph 9.0 mph 87 % 0.00 in 9 W/m2
15:55 43.0 °F 39.4 °F 29.79 in WNW 9.0 mph 9.0 mph 87 % 0.00 in 7 W/m2
16:00 42.8 °F 39.2 °F 29.80 in West 8.0 mph 9.0 mph 87 % 0.00 in 7 W/m2
16:05 42.7 °F 39.1 °F 29.80 in WNW 9.0 mph 21.0 mph 87 % 0.00 in 5 W/m2
16:15 42.6 °F 39.0 °F 29.80 in WNW 10.0 mph 11.0 mph 87 % 0.00 in 0 W/m2
16:20 42.4 °F 38.5 °F 29.80 in West 8.0 mph 8.0 mph 86 % 0.00 in 0 W/m2
16:25 42.2 °F 38.6 °F 29.80 in West 8.0 mph 8.0 mph 87 % 0.00 in 0 W/m2
16:30 42.1 °F 38.5 °F 29.80 in West 7.0 mph 8.0 mph 87 % 0.00 in 0 W/m2
16:35 42.0 °F 38.4 °F 29.79 in WNW 6.0 mph 8.0 mph 87 % 0.00 in 0 W/m2
16:45 41.8 °F 38.2 °F 29.79 in WSW 6.0 mph 8.0 mph 87 % 0.00 in 0 W/m2
16:50 41.8 °F 38.5 °F 29.79 in West 6.0 mph 9.0 mph 88 % 0.00 in 0 W/m2
16:55 41.8 °F 38.5 °F 29.78 in SW 5.0 mph 9.0 mph 88 % 0.00 in 0 W/m2
17:00 41.7 °F 38.4 °F 29.79 in SW 4.0 mph 5.0 mph 88 % 0.00 in 0 W/m2
17:20 41.7 °F 38.7 °F 29.79 in West 10.0 mph 10.0 mph 89 % 0.00 in 0 W/m2
17:25 41.7 °F 38.7 °F 29.79 in WNW 11.0 mph 11.0 mph 89 % 0.00 in 0 W/m2
17:30 41.7 °F 38.7 °F 29.79 in WNW 9.0 mph 9.0 mph 89 % 0.00 in 0 W/m2
17:35 41.6 °F 38.9 °F 29.79 in West 9.0 mph 9.0 mph 90 % 0.00 in 0 W/m2
17:45 41.5 °F 39.1 °F 29.80 in WNW 7.0 mph 10.0 mph 91 % 0.00 in 0 W/m2
17:55 41.4 °F 38.7 °F 29.79 in WNW 9.0 mph 10.0 mph 90 % 0.00 in 0 W/m2
18:00 41.2 °F 38.5 °F 29.79 in West 7.0 mph 7.0 mph 90 % 0.00 in 0 W/m2
18:05 41.0 °F 38.3 °F 29.79 in WNW 6.0 mph 7.0 mph 90 % 0.00 in 0 W/m2
18:10 40.8 °F 38.1 °F 29.79 in West 5.0 mph 5.0 mph 90 % 0.00 in 0 W/m2
18:20 40.4 °F 37.7 °F 29.78 in West 3.0 mph 4.0 mph 90 % 0.00 in 0 W/m2
18:25 40.4 °F 37.7 °F 29.79 in West 5.0 mph 13.0 mph 90 % 0.00 in 0 W/m2
18:30 40.7 °F 38.3 °F 29.78 in West 8.0 mph 11.0 mph 91 % 0.00 in 0 W/m2
18:35 40.8 °F 38.4 °F 29.78 in West 9.0 mph 11.0 mph 91 % 0.00 in 0 W/m2
18:40 40.8 °F 38.4 °F 29.78 in WNW 8.0 mph 11.0 mph 91 % 0.00 in 0 W/m2
18:45 40.9 °F 38.2 °F 29.78 in West 8.0 mph 11.0 mph 90 % 0.00 in 0 W/m2
18:55 40.7 °F 38.0 °F 29.78 in West 4.0 mph 6.0 mph 90 % 0.00 in 0 W/m2
19:00 40.6 °F 38.2 °F 29.78 in WSW 4.0 mph 5.0 mph 91 % 0.00 in 0 W/m2
19:05 40.6 °F 38.2 °F 29.77 in West 7.0 mph 7.0 mph 91 % 0.00 in 0 W/m2
19:10 40.7 °F 38.3 °F 29.78 in West 8.0 mph 8.0 mph 91 % 0.00 in 0 W/m2
19:15 40.8 °F 38.4 °F 29.78 in West 9.0 mph 15.0 mph 91 % 0.00 in 0 W/m2
19:20 41.1 °F 38.4 °F 29.78 in West 12.0 mph 19.0 mph 90 % 0.00 in 0 W/m2
19:30 40.8 °F 38.1 °F 29.77 in West 14.0 mph 14.0 mph 90 % 0.00 in 0 W/m2
19:35 40.5 °F 37.8 °F 29.77 in WNW 10.0 mph 14.0 mph 90 % 0.00 in 0 W/m2
19:40 40.2 °F 37.5 °F 29.77 in WNW 9.0 mph 9.0 mph 90 % 0.00 in 0 W/m2
19:45 40.1 °F 37.7 °F 29.76 in West 8.0 mph 9.0 mph 91 % 0.00 in 0 W/m2
19:50 40.0 °F 37.6 °F 29.76 in WNW 7.0 mph 7.0 mph 91 % 0.00 in 0 W/m2
19:55 39.9 °F 37.5 °F 29.76 in West 8.0 mph 8.0 mph 91 % 0.00 in 0 W/m2
20:05 39.9 °F 37.5 °F 29.75 in West 9.0 mph 15.0 mph 91 % 0.00 in 0 W/m2
20:10 40.2 °F 37.8 °F 29.76 in West 10.0 mph 14.0 mph 91 % 0.00 in 0 W/m2
20:15 40.7 °F 38.3 °F 29.77 in West 12.0 mph 14.0 mph 91 % 0.00 in 0 W/m2
20:20 41.0 °F 38.6 °F 29.76 in WSW 13.0 mph 16.0 mph 91 % 0.00 in 0 W/m2
20:25 41.0 °F 38.6 °F 29.76 in WSW 13.0 mph 16.0 mph 91 % 0.00 in 0 W/m2
20:30 40.8 °F 38.4 °F 29.75 in WSW 12.0 mph 12.0 mph 91 % 0.00 in 0 W/m2
20:40 40.6 °F 38.2 °F 29.75 in West 8.0 mph 10.0 mph 91 % 0.00 in 0 W/m2
20:45 40.7 °F 38.3 °F 29.74 in West 8.0 mph 11.0 mph 91 % 0.00 in 0 W/m2
20:50 40.8 °F 38.4 °F 29.74 in SW 8.0 mph 10.0 mph 91 % 0.00 in 0 W/m2
20:55 41.0 °F 38.6 °F 29.74 in WSW 8.0 mph 14.0 mph 91 % 0.00 in 0 W/m2
21:00 41.0 °F 38.6 °F 29.74 in WSW 7.0 mph 8.0 mph 91 % 0.00 in 0 W/m2
21:05 41.2 °F 38.8 °F 29.74 in WSW 8.0 mph 12.0 mph 91 % 0.00 in 0 W/m2
21:10 41.3 °F 38.9 °F 29.73 in WSW 9.0 mph 9.0 mph 91 % 0.00 in 0 W/m2
21:15 41.3 °F 38.9 °F 29.73 in West 8.0 mph 9.0 mph 91 % 0.00 in 0 W/m2
21:25 41.2 °F 38.8 °F 29.73 in West 11.0 mph 16.0 mph 91 % 0.00 in 0 W/m2
21:30 41.3 °F 38.9 °F 29.72 in West 13.0 mph 13.0 mph 91 % 0.00 in 0 W/m2
21:35 41.4 °F 38.7 °F 29.72 in West 12.0 mph 13.0 mph 90 % 0.00 in 0 W/m2
21:40 41.4 °F 39.0 °F 29.72 in West 10.0 mph 12.0 mph 91 % 0.00 in 0 W/m2
21:50 41.5 °F 38.8 °F 29.72 in West 10.0 mph 10.0 mph 90 % 0.00 in 0 W/m2
21:55 41.6 °F 38.9 °F 29.72 in West 11.0 mph 12.0 mph 90 % 0.00 in 0 W/m2
22:00 41.5 °F 38.8 °F 29.72 in West 11.0 mph 11.0 mph 90 % 0.00 in 0 W/m2
22:05 41.5 °F 38.8 °F 29.72 in WNW 11.0 mph 11.0 mph 90 % 0.00 in 0 W/m2
22:10 41.4 °F 38.4 °F 29.72 in West 11.0 mph 11.0 mph 89 % 0.00 in 0 W/m2
22:20 41.4 °F 38.4 °F 29.71 in SW 9.0 mph 10.0 mph 89 % 0.00 in 0 W/m2
22:25 41.4 °F 38.4 °F 29.71 in West 10.0 mph 10.0 mph 89 % 0.00 in 0 W/m2
22:30 41.5 °F 38.5 °F 29.71 in West 11.0 mph 18.0 mph 89 % 0.00 in 0 W/m2
22:35 41.7 °F 38.4 °F 29.70 in West 11.0 mph 18.0 mph 88 % 0.00 in 0 W/m2
22:40 41.7 °F 38.4 °F 29.70 in WNW 13.0 mph 14.0 mph 88 % 0.00 in 0 W/m2
22:50 41.9 °F 38.6 °F 29.71 in WSW 12.0 mph 12.0 mph 88 % 0.00 in 0 W/m2
22:55 41.9 °F 38.6 °F 29.70 in West 9.0 mph 12.0 mph 88 % 0.00 in 0 W/m2
23:00 41.9 °F 38.6 °F 29.70 in NW 11.0 mph 11.0 mph 88 % 0.00 in 0 W/m2
23:05 42.0 °F 38.7 °F 29.70 in West 12.0 mph 12.0 mph 88 % 0.00 in 0 W/m2
23:10 42.0 °F 38.7 °F 29.70 in WNW 12.0 mph 13.0 mph 88 % 0.00 in 0 W/m2
23:15 42.2 °F 38.6 °F 29.70 in West 13.0 mph 13.0 mph 87 % 0.00 in 0 W/m2
23:25 42.1 °F 38.8 °F 29.70 in West 9.0 mph 12.0 mph 88 % 0.00 in 0 W/m2
23:30 41.9 °F 38.6 °F 29.70 in West 9.0 mph 9.0 mph 88 % 0.00 in 0 W/m2
23:35 41.8 °F 38.5 °F 29.70 in West 8.0 mph 9.0 mph 88 % 0.00 in 0 W/m2
23:40 41.6 °F 38.6 °F 29.69 in West 7.0 mph 7.0 mph 89 % 0.00 in 0 W/m2
23:45 41.6 °F 38.6 °F 29.69 in West 8.0 mph 9.0 mph 89 % 0.00 in 0 W/m2
23:50 41.6 °F 38.6 °F 29.69 in West 10.0 mph 12.0 mph 89 % 0.00 in 0 W/m2
Delerius-Weather
Compliments of Weather Underground - 2 mb

Data updates at regular intervals.